sensor_id;sensor_type;location;lat;lon;timestamp;pressure;altitude;pressure_sealevel;temperature;humidity
30152;BME280;16963;26.018;-80.216;2022-08-27T00:00:35;101539.09;;;32.50;55.98
30152;BME280;16963;26.018;-80.216;2022-08-27T00:03:03;101534.81;;;32.47;56.67
30152;BME280;16963;26.018;-80.216;2022-08-27T00:05:42;101535.81;;;32.46;55.68
30152;BME280;16963;26.018;-80.216;2022-08-27T00:08:12;101540.97;;;32.49;55.85
30152;BME280;16963;26.018;-80.216;2022-08-27T00:10:44;101539.25;;;32.48;53.82
30152;BME280;16963;26.018;-80.216;2022-08-27T00:13:12;101540.38;;;32.46;55.17
30152;BME280;16963;26.018;-80.216;2022-08-27T00:15:42;101546.97;;;32.43;56.27
30152;BME280;16963;26.018;-80.216;2022-08-27T00:18:09;101542.97;;;32.47;55.69
30152;BME280;16963;26.018;-80.216;2022-08-27T00:20:38;101540.97;;;32.49;56.10
30152;BME280;16963;26.018;-80.216;2022-08-27T00:23:06;101545.81;;;32.46;55.97
30152;BME280;16963;26.018;-80.216;2022-08-27T00:26:53;101545.81;;;32.36;56.04
30152;BME280;16963;26.018;-80.216;2022-08-27T00:29:21;101540.25;;;32.28;56.72
30152;BME280;16963;26.018;-80.216;2022-08-27T00:31:48;101536.13;;;32.24;56.92
30152;BME280;16963;26.018;-80.216;2022-08-27T00:34:21;101540.53;;;32.25;57.40
30152;BME280;16963;26.018;-80.216;2022-08-27T00:36:50;101540.66;;;32.23;57.46
30152;BME280;16963;26.018;-80.216;2022-08-27T00:39:19;101553.84;;;32.18;56.55
30152;BME280;16963;26.018;-80.216;2022-08-27T00:41:47;101559.69;;;32.13;56.88
30152;BME280;16963;26.018;-80.216;2022-08-27T00:44:15;101553.69;;;32.10;57.13
30152;BME280;16963;26.018;-80.216;2022-08-27T00:47:03;101555.53;;;32.09;57.53
30152;BME280;16963;26.018;-80.216;2022-08-27T00:49:40;101560.97;;;32.09;57.88
30152;BME280;16963;26.018;-80.216;2022-08-27T00:54:46;101562.50;;;32.02;58.35
30152;BME280;16963;26.018;-80.216;2022-08-27T00:57:16;101565.53;;;31.99;57.89
30152;BME280;16963;26.018;-80.216;2022-08-27T00:59:45;101561.03;;;31.98;58.50
30152;BME280;16963;26.018;-80.216;2022-08-27T01:02:15;101567.47;;;31.97;57.16
30152;BME280;16963;26.018;-80.216;2022-08-27T01:04:54;101561.03;;;31.98;57.81
30152;BME280;16963;26.018;-80.216;2022-08-27T01:07:39;101570.47;;;31.94;57.50
30152;BME280;16963;26.018;-80.216;2022-08-27T01:10:15;101570.75;;;31.91;58.08
30152;BME280;16963;26.018;-80.216;2022-08-27T01:12:46;101578.47;;;31.86;57.79
30152;BME280;16963;26.018;-80.216;2022-08-27T01:15:21;101569.44;;;31.85;58.49
30152;BME280;16963;26.018;-80.216;2022-08-27T01:17:50;101561.47;;;31.84;59.08
30152;BME280;16963;26.018;-80.216;2022-08-27T01:20:30;101568.16;;;31.89;58.67
30152;BME280;16963;26.018;-80.216;2022-08-27T01:25:31;101568.59;;;31.85;58.12
30152;BME280;16963;26.018;-80.216;2022-08-27T01:29:15;101576.56;;;31.76;58.42
30152;BME280;16963;26.018;-80.216;2022-08-27T01:31:49;101582.59;;;31.80;57.40
30152;BME280;16963;26.018;-80.216;2022-08-27T01:34:19;101587.16;;;31.79;58.06
30152;BME280;16963;26.018;-80.216;2022-08-27T01:36:46;101595.56;;;31.76;58.52
30152;BME280;16963;26.018;-80.216;2022-08-27T01:39:20;101604.25;;;31.70;58.73
30152;BME280;16963;26.018;-80.216;2022-08-27T01:41:50;101602.81;;;31.66;58.98
30152;BME280;16963;26.018;-80.216;2022-08-27T01:44:19;101599.38;;;31.64;60.36
30152;BME280;16963;26.018;-80.216;2022-08-27T01:46:48;101592.50;;;31.60;59.22
30152;BME280;16963;26.018;-80.216;2022-08-27T01:49:16;101593.75;;;31.56;58.11
30152;BME280;16963;26.018;-80.216;2022-08-27T01:54:19;101596.16;;;31.49;60.51
30152;BME280;16963;26.018;-80.216;2022-08-27T01:56:47;101597.31;;;31.47;61.43
30152;BME280;16963;26.018;-80.216;2022-08-27T01:59:15;101604.19;;;31.51;62.07
30152;BME280;16963;26.018;-80.216;2022-08-27T02:01:45;101610.78;;;31.58;61.63
30152;BME280;16963;26.018;-80.216;2022-08-27T02:04:19;101603.09;;;31.63;62.14
30152;BME280;16963;26.018;-80.216;2022-08-27T02:06:48;101605.81;;;31.63;62.02
30152;BME280;16963;26.018;-80.216;2022-08-27T02:09:16;101607.06;;;31.59;61.46
30152;BME280;16963;26.018;-80.216;2022-08-27T02:11:45;101613.63;;;31.56;60.16
30152;BME280;16963;26.018;-80.216;2022-08-27T02:14:15;101614.50;;;31.57;60.17
30152;BME280;16963;26.018;-80.216;2022-08-27T02:16:42;101621.38;;;31.61;60.83
30152;BME280;16963;26.018;-80.216;2022-08-27T02:19:20;101617.50;;;31.64;60.52
30152;BME280;16963;26.018;-80.216;2022-08-27T02:21:49;101624.50;;;31.66;60.35
30152;BME280;16963;26.018;-80.216;2022-08-27T02:24:18;101624.50;;;31.66;60.59
30152;BME280;16963;26.018;-80.216;2022-08-27T02:26:45;101638.25;;;31.65;60.10
30152;BME280;16963;26.018;-80.216;2022-08-27T02:29:14;101628.50;;;31.62;60.11
30152;BME280;16963;26.018;-80.216;2022-08-27T02:31:42;101634.53;;;31.66;60.10
30152;BME280;16963;26.018;-80.216;2022-08-27T02:34:09;101624.50;;;31.66;59.64
30152;BME280;16963;26.018;-80.216;2022-08-27T02:36:38;101628.25;;;31.65;59.29
30152;BME280;16963;26.018;-80.216;2022-08-27T02:39:20;101628.50;;;31.62;59.71
30152;BME280;16963;26.018;-80.216;2022-08-27T02:41:49;101634.66;;;31.64;60.17
30152;BME280;16963;26.018;-80.216;2022-08-27T02:44:16;101641.09;;;31.63;60.08
30152;BME280;16963;26.018;-80.216;2022-08-27T02:46:46;101642.06;;;31.62;60.47
30152;BME280;16963;26.018;-80.216;2022-08-27T02:49:19;101643.94;;;31.62;61.74
30152;BME280;16963;26.018;-80.216;2022-08-27T02:51:54;101641.34;;;31.60;62.36
30152;BME280;16963;26.018;-80.216;2022-08-27T02:54:23;101644.03;;;31.50;62.87
30152;BME280;16963;26.018;-80.216;2022-08-27T02:56:52;101648.38;;;31.42;62.57
30152;BME280;16963;26.018;-80.216;2022-08-27T02:59:31;101641.94;;;31.43;63.76
30152;BME280;16963;26.018;-80.216;2022-08-27T03:01:59;101643.41;;;31.47;64.13
30152;BME280;16963;26.018;-80.216;2022-08-27T03:04:29;101645.88;;;31.50;64.43
30152;BME280;16963;26.018;-80.216;2022-08-27T03:06:56;101645.88;;;31.50;64.43
30152;BME280;16963;26.018;-80.216;2022-08-27T03:09:25;101640.59;;;31.48;64.04
30152;BME280;16963;26.018;-80.216;2022-08-27T03:11:54;101642.44;;;31.48;64.48
30152;BME280;16963;26.018;-80.216;2022-08-27T03:14:24;101643.56;;;31.45;64.11
30152;BME280;16963;26.018;-80.216;2022-08-27T03:16:52;101647.16;;;31.46;64.78
30152;BME280;16963;26.018;-80.216;2022-08-27T03:19:48;101648.53;;;31.71;63.82
30152;BME280;16963;26.018;-80.216;2022-08-27T03:22:16;101653.00;;;31.51;64.86
30152;BME280;16963;26.018;-80.216;2022-08-27T03:24:45;101649.84;;;31.46;65.05
30152;BME280;16963;26.018;-80.216;2022-08-27T03:27:14;101642.94;;;31.42;64.76
30152;BME280;16963;26.018;-80.216;2022-08-27T03:29:42;101651.09;;;31.42;64.95
30152;BME280;16963;26.018;-80.216;2022-08-27T03:32:09;101651.22;;;31.40;65.56
30152;BME280;16963;26.018;-80.216;2022-08-27T03:34:43;101648.63;;;31.38;65.51
30152;BME280;16963;26.018;-80.216;2022-08-27T03:37:10;101656.31;;;31.33;65.77
30152;BME280;16963;26.018;-80.216;2022-08-27T03:39:39;101656.56;;;31.30;65.89
30152;BME280;16963;26.018;-80.216;2022-08-27T03:42:06;101657.69;;;31.28;65.45
30152;BME280;16963;26.018;-80.216;2022-08-27T03:44:49;101656.00;;;31.27;65.87
30152;BME280;16963;26.018;-80.216;2022-08-27T03:47:22;101649.69;;;31.26;65.73
30152;BME280;16963;26.018;-80.216;2022-08-27T03:49:49;101655.63;;;31.20;65.94
30152;BME280;16963;26.018;-80.216;2022-08-27T03:52:19;101652.19;;;31.18;65.96
30152;BME280;16963;26.018;-80.216;2022-08-27T03:54:46;101657.63;;;31.18;65.53
30152;BME280;16963;26.018;-80.216;2022-08-27T03:57:16;101652.47;;;31.15;65.35
30152;BME280;16963;26.018;-80.216;2022-08-27T03:59:45;101644.47;;;31.13;65.44
30152;BME280;16963;26.018;-80.216;2022-08-27T04:02:14;101654.47;;;31.13;65.40
30152;BME280;16963;26.018;-80.216;2022-08-27T04:04:42;101644.75;;;31.10;64.74
30152;BME280;16963;26.018;-80.216;2022-08-27T04:09:49;101644.16;;;31.07;64.78
30152;BME280;16963;26.018;-80.216;2022-08-27T04:12:19;101646.13;;;31.05;64.76
30152;BME280;16963;26.018;-80.216;2022-08-27T04:14:49;101650.94;;;31.01;64.84
30152;BME280;16963;26.018;-80.216;2022-08-27T04:17:16;101655.78;;;30.97;64.82
30152;BME280;16963;26.018;-80.216;2022-08-27T04:19:46;101645.78;;;30.98;64.40
30152;BME280;16963;26.018;-80.216;2022-08-27T04:22:15;101642.34;;;30.96;64.27
30152;BME280;16963;26.018;-80.216;2022-08-27T04:24:44;101634.63;;;30.91;64.19
30152;BME280;16963;26.018;-80.216;2022-08-27T04:27:11;101632.03;;;30.90;64.78
30152;BME280;16963;26.018;-80.216;2022-08-27T04:29:56;101624.03;;;30.88;64.70
30152;BME280;16963;26.018;-80.216;2022-08-27T04:35:01;101618.84;;;30.85;64.79
30152;BME280;16963;26.018;-80.216;2022-08-27T04:37:30;101616.25;;;30.84;64.74
30152;BME280;16963;26.018;-80.216;2022-08-27T04:39:59;101611.97;;;30.81;65.04
30152;BME280;16963;26.018;-80.216;2022-08-27T04:42:27;101605.69;;;30.80;65.12
30152;BME280;16963;26.018;-80.216;2022-08-27T04:44:57;101601.38;;;30.78;65.00
30152;BME280;16963;26.018;-80.216;2022-08-27T04:47:26;101595.22;;;30.76;64.82
30152;BME280;16963;26.018;-80.216;2022-08-27T04:49:55;101592.53;;;30.76;65.00
30152;BME280;16963;26.018;-80.216;2022-08-27T04:52:25;101599.94;;;30.74;64.45
30152;BME280;16963;26.018;-80.216;2022-08-27T04:54:55;101585.69;;;30.72;64.53
30152;BME280;16963;26.018;-80.216;2022-08-27T04:57:21;101583.94;;;30.71;64.84
30152;BME280;16963;26.018;-80.216;2022-08-27T04:59:59;101579.53;;;30.70;64.55
30152;BME280;16963;26.018;-80.216;2022-08-27T05:02:28;101573.09;;;30.71;64.76
30152;BME280;16963;26.018;-80.216;2022-08-27T05:04:56;101578.78;;;30.68;64.48
30152;BME280;16963;26.018;-80.216;2022-08-27T05:07:26;101579.88;;;30.65;64.60
30152;BME280;16963;26.018;-80.216;2022-08-27T05:09:55;101576.59;;;30.62;65.36
30152;BME280;16963;26.018;-80.216;2022-08-27T05:12:22;101573.91;;;30.62;65.15
30152;BME280;16963;26.018;-80.216;2022-08-27T05:14:50;101574.03;;;30.60;65.58
30152;BME280;16963;26.018;-80.216;2022-08-27T05:17:18;101576.84;;;30.58;65.00
30152;BME280;16963;26.018;-80.216;2022-08-27T05:22:11;101561.59;;;30.57;65.50
30152;BME280;16963;26.018;-80.216;2022-08-27T05:24:39;101552.75;;;30.55;65.45
30152;BME280;16963;26.018;-80.216;2022-08-27T05:27:07;101558.41;;;30.52;65.19
30152;BME280;16963;26.018;-80.216;2022-08-27T05:29:39;101549.81;;;30.47;65.99
30152;BME280;16963;26.018;-80.216;2022-08-27T05:32:07;101546.13;;;30.48;65.42
30152;BME280;16963;26.018;-80.216;2022-08-27T05:34:36;101548.09;;;30.46;65.58
30152;BME280;16963;26.018;-80.216;2022-08-27T05:37:06;101542.81;;;30.45;65.54
30152;BME280;16963;26.018;-80.216;2022-08-27T05:39:39;101546.63;;;30.42;65.95
30152;BME280;16963;26.018;-80.216;2022-08-27T05:42:07;101543.06;;;30.42;65.93
30152;BME280;16963;26.018;-80.216;2022-08-27T05:44:39;101548.50;;;30.42;65.95
30152;BME280;16963;26.018;-80.216;2022-08-27T05:47:19;101530.66;;;30.39;65.54
30152;BME280;16963;26.018;-80.216;2022-08-27T05:49:51;101521.81;;;30.37;65.88
30152;BME280;16963;26.018;-80.216;2022-08-27T05:52:20;101523.78;;;30.35;65.85
30152;BME280;16963;26.018;-80.216;2022-08-27T05:54:49;101525.75;;;30.33;66.17
30152;BME280;16963;26.018;-80.216;2022-08-27T05:57:18;101517.91;;;30.30;66.51
30152;BME280;16963;26.018;-80.216;2022-08-27T05:59:46;101508.06;;;30.29;66.19
30152;BME280;16963;26.018;-80.216;2022-08-27T06:02:39;101502.88;;;30.26;66.26
30152;BME280;16963;26.018;-80.216;2022-08-27T06:05:21;101504.84;;;30.24;66.68
30152;BME280;16963;26.018;-80.216;2022-08-27T06:07:56;101501.66;;;30.18;66.71
30152;BME280;16963;26.018;-80.216;2022-08-27T06:10:25;101503.63;;;30.16;67.02
30152;BME280;16963;26.018;-80.216;2022-08-27T06:12:53;101501.94;;;30.15;67.27
30152;BME280;16963;26.018;-80.216;2022-08-27T06:15:34;101494.06;;;30.12;67.53
30152;BME280;16963;26.018;-80.216;2022-08-27T06:18:02;101492.47;;;30.10;67.84
30152;BME280;16963;26.018;-80.216;2022-08-27T06:20:31;101483.50;;;30.09;67.89
30152;BME280;16963;26.018;-80.216;2022-08-27T06:22:59;101475.38;;;30.09;67.73
30152;BME280;16963;26.018;-80.216;2022-08-27T06:25:27;101481.91;;;30.07;67.86
30152;BME280;16963;26.018;-80.216;2022-08-27T06:28:09;101480.19;;;30.06;68.21
30152;BME280;16963;26.018;-80.216;2022-08-27T06:30:39;101473.91;;;30.05;68.39
30152;BME280;16963;26.018;-80.216;2022-08-27T06:33:07;101479.56;;;30.02;68.12
30152;BME280;16963;26.018;-80.216;2022-08-27T06:35:36;101476.13;;;30.00;68.17
30152;BME280;16963;26.018;-80.216;2022-08-27T06:38:06;101478.13;;;29.98;68.47
30152;BME280;16963;26.018;-80.216;2022-08-27T06:40:40;101476.41;;;29.97;68.23
30152;BME280;16963;26.018;-80.216;2022-08-27T06:43:10;101472.84;;;29.96;68.06
30152;BME280;16963;26.018;-80.216;2022-08-27T06:45:39;101463.25;;;29.92;68.38
30152;BME280;16963;26.018;-80.216;2022-08-27T06:48:06;101467.81;;;29.92;68.27
30152;BME280;16963;26.018;-80.216;2022-08-27T06:52:22;101471.16;;;30.16;68.50
30152;BME280;16963;26.018;-80.216;2022-08-27T06:54:50;101463.34;;;30.02;68.74
30152;BME280;16963;26.018;-80.216;2022-08-27T06:57:19;101454.47;;;30.00;68.51
30152;BME280;16963;26.018;-80.216;2022-08-27T06:59:47;101454.75;;;29.97;68.77
30152;BME280;16963;26.018;-80.216;2022-08-27T07:02:16;101455.75;;;29.96;69.12
30152;BME280;16963;26.018;-80.216;2022-08-27T07:04:46;101455.03;;;29.94;69.11
30152;BME280;16963;26.018;-80.216;2022-08-27T07:07:16;101459.94;;;29.89;69.08
30152;BME280;16963;26.018;-80.216;2022-08-27T07:10:00;101459.22;;;29.87;69.13
30152;BME280;16963;26.018;-80.216;2022-08-27T07:12:40;101448.50;;;29.85;69.35
30152;BME280;16963;26.018;-80.216;2022-08-27T07:15:09;101448.50;;;29.85;69.79
30152;BME280;16963;26.018;-80.216;2022-08-27T07:17:37;101447.78;;;29.83;69.95
30152;BME280;16963;26.018;-80.216;2022-08-27T07:20:11;101439.53;;;29.85;69.58
30152;BME280;16963;26.018;-80.216;2022-08-27T07:22:40;101446.06;;;29.82;69.96
30152;BME280;16963;26.018;-80.216;2022-08-27T07:25:13;101440.66;;;29.82;70.07
30152;BME280;16963;26.018;-80.216;2022-08-27T07:27:41;101441.78;;;29.79;69.93
30152;BME280;16963;26.018;-80.216;2022-08-27T07:30:11;101446.34;;;29.79;69.75
30152;BME280;16963;26.018;-80.216;2022-08-27T07:34:36;101444.00;;;29.74;70.26
30152;BME280;16963;26.018;-80.216;2022-08-27T07:37:06;101447.72;;;29.73;69.81
30152;BME280;16963;26.018;-80.216;2022-08-27T07:39:35;101436.16;;;29.71;69.99
30152;BME280;16963;26.018;-80.216;2022-08-27T07:42:04;101430.63;;;29.73;69.95
30152;BME280;16963;26.018;-80.216;2022-08-27T07:44:50;101437.00;;;29.72;70.18
30152;BME280;16963;26.018;-80.216;2022-08-27T07:47:19;101437.13;;;29.70;70.42
30152;BME280;16963;26.018;-80.216;2022-08-27T07:49:47;101432.81;;;29.68;70.60
30152;BME280;16963;26.018;-80.216;2022-08-27T07:52:16;101429.25;;;29.67;70.44
30152;BME280;16963;26.018;-80.216;2022-08-27T07:56:06;101424.97;;;29.65;70.60
30152;BME280;16963;26.018;-80.216;2022-08-27T07:58:35;101425.06;;;29.63;70.49
30152;BME280;16963;26.018;-80.216;2022-08-27T08:01:06;101420.91;;;29.59;70.83
30152;BME280;16963;26.018;-80.216;2022-08-27T08:03:36;101421.28;;;29.54;70.96
30152;BME280;16963;26.018;-80.216;2022-08-27T08:06:10;101427.56;;;29.55;71.44
30152;BME280;16963;26.018;-80.216;2022-08-27T08:08:40;101422.25;;;29.53;71.21
30152;BME280;16963;26.018;-80.216;2022-08-27T08:11:12;101428.69;;;29.52;71.36
30152;BME280;16963;26.018;-80.216;2022-08-27T08:13:41;101422.66;;;29.49;71.46
30152;BME280;16963;26.018;-80.216;2022-08-27T08:16:23;101418.25;;;29.48;71.41
30152;BME280;16963;26.018;-80.216;2022-08-27T08:18:57;101416.41;;;29.48;71.87
30152;BME280;16963;26.018;-80.216;2022-08-27T08:21:26;101420.94;;;29.48;71.69
30152;BME280;16963;26.018;-80.216;2022-08-27T08:23:55;101420.94;;;29.48;71.87
30152;BME280;16963;26.018;-80.216;2022-08-27T08:26:25;101423.78;;;29.46;72.20
30152;BME280;16963;26.018;-80.216;2022-08-27T08:28:52;101429.28;;;29.45;72.25
30152;BME280;16963;26.018;-80.216;2022-08-27T08:31:20;101444.78;;;29.43;71.87
30152;BME280;16963;26.018;-80.216;2022-08-27T08:33:57;101436.69;;;29.43;71.95
30152;BME280;16963;26.018;-80.216;2022-08-27T08:36:31;101437.69;;;29.42;72.33
30152;BME280;16963;26.018;-80.216;2022-08-27T08:38:59;101438.66;;;29.41;72.45
30152;BME280;16963;26.018;-80.216;2022-08-27T08:46:46;101448.72;;;29.38;73.04
30152;BME280;16963;26.018;-80.216;2022-08-27T08:55:29;101446.28;;;29.35;72.75
30152;BME280;16963;26.018;-80.216;2022-08-27T09:00:53;101442.97;;;29.32;72.90
30152;BME280;16963;26.018;-80.216;2022-08-27T09:03:23;101443.22;;;29.29;72.85
30152;BME280;16963;26.018;-80.216;2022-08-27T09:05:57;101443.22;;;29.29;73.01
30152;BME280;16963;26.018;-80.216;2022-08-27T09:08:40;101442.34;;;29.28;72.80
30152;BME280;16963;26.018;-80.216;2022-08-27T09:11:19;101447.28;;;29.23;72.88
30152;BME280;16963;26.018;-80.216;2022-08-27T09:13:52;101440.03;;;29.24;73.14
30152;BME280;16963;26.018;-80.216;2022-08-27T09:16:21;101446.44;;;29.23;73.48
30152;BME280;16963;26.018;-80.216;2022-08-27T09:21:03;101444.84;;;29.20;73.27
30152;BME280;16963;26.018;-80.216;2022-08-27T09:26:36;101445.44;;;29.12;74.13
30152;BME280;16963;26.018;-80.216;2022-08-27T09:29:12;101450.00;;;29.12;74.37
30152;BME280;16963;26.018;-80.216;2022-08-27T09:32:06;101454.41;;;29.13;74.00
30152;BME280;16963;26.018;-80.216;2022-08-27T09:34:41;101448.25;;;29.11;74.38
30152;BME280;16963;26.018;-80.216;2022-08-27T09:37:24;101453.56;;;29.12;74.62
30152;BME280;16963;26.018;-80.216;2022-08-27T09:40:31;101446.41;;;29.11;74.57
30152;BME280;16963;26.018;-80.216;2022-08-27T09:43:07;101453.00;;;29.07;74.94
30152;BME280;16963;26.018;-80.216;2022-08-27T09:45:53;101451.69;;;29.02;75.27
30152;BME280;16963;26.018;-80.216;2022-08-27T09:48:28;101452.66;;;29.01;75.86
30152;BME280;16963;26.018;-80.216;2022-08-27T09:51:21;101449.94;;;29.01;75.94
30152;BME280;16963;26.018;-80.216;2022-08-27T09:53:58;101448.25;;;28.99;76.10
30152;BME280;16963;26.018;-80.216;2022-08-27T09:56:46;101451.69;;;29.02;76.02
30152;BME280;16963;26.018;-80.216;2022-08-27T09:59:26;101457.94;;;29.02;75.91
30152;BME280;16963;26.018;-80.216;2022-08-27T10:04:50;101464.19;;;29.03;76.12
30152;BME280;16963;26.018;-80.216;2022-08-27T10:12:52;101477.44;;;28.94;76.22
30152;BME280;16963;26.018;-80.216;2022-08-27T10:15:23;101474.00;;;28.92;76.14
30152;BME280;16963;26.018;-80.216;2022-08-27T10:18:15;101478.44;;;28.93;76.38
30152;BME280;16963;26.018;-80.216;2022-08-27T10:21:16;101473.03;;;28.93;76.28
30152;BME280;16963;26.018;-80.216;2022-08-27T10:27:14;101477.72;;;28.91;76.71
30152;BME280;16963;26.018;-80.216;2022-08-27T10:30:18;101479.56;;;28.91;76.43
30152;BME280;16963;26.018;-80.216;2022-08-27T10:33:10;101479.56;;;28.91;76.89
30152;BME280;16963;26.018;-80.216;2022-08-27T10:38:36;101477.94;;;28.88;77.13
30152;BME280;16963;26.018;-80.216;2022-08-27T10:44:51;101489.00;;;28.85;76.94
30152;BME280;16963;26.018;-80.216;2022-08-27T10:47:43;101487.53;;;28.81;77.07
30152;BME280;16963;26.018;-80.216;2022-08-27T10:50:44;101478.69;;;28.79;77.21
30152;BME280;16963;26.018;-80.216;2022-08-27T11:04:30;101486.50;;;28.71;77.29
30152;BME280;16963;26.018;-80.216;2022-08-27T11:07:07;101486.50;;;28.71;77.77
30152;BME280;16963;26.018;-80.216;2022-08-27T11:10:03;101484.81;;;28.70;77.31
30152;BME280;16963;26.018;-80.216;2022-08-27T11:12:37;101489.31;;;28.69;77.40
30152;BME280;16963;26.018;-80.216;2022-08-27T11:17:59;101504.69;;;28.69;77.79
30152;BME280;16963;26.018;-80.216;2022-08-27T11:20:34;101504.69;;;28.69;77.32
30152;BME280;16963;26.018;-80.216;2022-08-27T11:23:24;101510.09;;;28.69;77.27
30152;BME280;16963;26.018;-80.216;2022-08-27T11:26:02;101513.03;;;28.66;77.45
30152;BME280;16963;26.018;-80.216;2022-08-27T11:28:52;101519.03;;;28.69;77.97
30152;BME280;16963;26.018;-80.216;2022-08-27T11:31:52;101530.72;;;28.70;77.96
30152;BME280;16963;26.018;-80.216;2022-08-27T11:42:40;101528.88;;;28.70;78.24
30152;BME280;16963;26.018;-80.216;2022-08-27T11:45:27;101531.69;;;28.69;78.51
30152;BME280;16963;26.018;-80.216;2022-08-27T11:50:52;101543.00;;;28.74;78.56
30152;BME280;16963;26.018;-80.216;2022-08-27T11:53:38;101534.03;;;28.73;78.84
30152;BME280;16963;26.018;-80.216;2022-08-27T11:59:18;101553.56;;;28.77;79.19
30152;BME280;16963;26.018;-80.216;2022-08-27T12:01:48;101557.59;;;28.71;79.33
30152;BME280;16963;26.018;-80.216;2022-08-27T12:16:47;101565.84;;;28.81;79.03
30152;BME280;16963;26.018;-80.216;2022-08-27T12:22:55;101560.97;;;28.86;79.13
30152;BME280;16963;26.018;-80.216;2022-08-27T12:26:00;101557.16;;;28.89;79.56
30152;BME280;16963;26.018;-80.216;2022-08-27T12:28:40;101558.75;;;28.91;79.49
30152;BME280;16963;26.018;-80.216;2022-08-27T12:31:08;101560.00;;;28.98;79.39
30152;BME280;16963;26.018;-80.216;2022-08-27T12:33:52;101559.41;;;29.06;79.71
30152;BME280;16963;26.018;-80.216;2022-08-27T12:36:26;101561.41;;;29.15;79.57
30152;BME280;16963;26.018;-80.216;2022-08-27T12:38:57;101554.56;;;29.23;79.13
30152;BME280;16963;26.018;-80.216;2022-08-27T12:41:35;101556.50;;;29.32;79.00
30152;BME280;16963;26.018;-80.216;2022-08-27T12:44:14;101566.72;;;29.39;78.49
30152;BME280;16963;26.018;-80.216;2022-08-27T12:47:09;101563.53;;;29.46;78.21
30152;BME280;16963;26.018;-80.216;2022-08-27T12:50:10;101557.63;;;29.52;77.96
30152;BME280;16963;26.018;-80.216;2022-08-27T13:04:54;101559.94;;;29.90;76.63
30152;BME280;16963;26.018;-80.216;2022-08-27T13:07:29;101560.03;;;30.00;75.91
30152;BME280;16963;26.018;-80.216;2022-08-27T13:10:54;101562.50;;;30.03;75.54
30152;BME280;16963;26.018;-80.216;2022-08-27T13:15:32;101559.78;;;30.03;74.72
30152;BME280;16963;26.018;-80.216;2022-08-27T13:20:00;101559.78;;;30.03;74.84
30152;BME280;16963;26.018;-80.216;2022-08-27T13:22:38;101566.56;;;30.09;74.62
30152;BME280;16963;26.018;-80.216;2022-08-27T13:25:25;101575.25;;;30.12;74.70
30152;BME280;16963;26.018;-80.216;2022-08-27T13:28:08;101576.00;;;30.14;74.89
30152;BME280;16963;26.018;-80.216;2022-08-27T13:30:44;101573.06;;;30.17;75.23
30152;BME280;16963;26.018;-80.216;2022-08-27T13:33:17;101564.66;;;30.20;75.04
30152;BME280;16963;26.018;-80.216;2022-08-27T13:35:47;101566.13;;;30.25;74.69
30152;BME280;16963;26.018;-80.216;2022-08-27T13:38:17;101568.47;;;30.29;74.40
30152;BME280;16963;26.018;-80.216;2022-08-27T13:41:45;101587.91;;;30.34;73.64
30152;BME280;16963;26.018;-80.216;2022-08-27T13:44:25;101595.66;;;30.39;72.88
30152;BME280;16963;26.018;-80.216;2022-08-27T13:47:01;101599.94;;;30.42;72.96
30152;BME280;16963;26.018;-80.216;2022-08-27T13:49:33;101612.25;;;30.46;72.99
30152;BME280;16963;26.018;-80.216;2022-08-27T13:52:23;101610.88;;;30.51;72.61
30152;BME280;16963;26.018;-80.216;2022-08-27T13:55:04;101614.78;;;30.58;72.76
30152;BME280;16963;26.018;-80.216;2022-08-27T13:57:47;101613.53;;;30.63;71.77
30152;BME280;16963;26.018;-80.216;2022-08-27T14:00:25;101611.56;;;30.65;72.07
30152;BME280;16963;26.018;-80.216;2022-08-27T14:06:01;101613.50;;;30.74;72.01
30152;BME280;16963;26.018;-80.216;2022-08-27T14:08:32;101616.66;;;30.79;72.25
30152;BME280;16963;26.018;-80.216;2022-08-27T14:11:05;101612.44;;;30.86;71.36
30152;BME280;16963;26.018;-80.216;2022-08-27T14:13:42;101612.94;;;30.91;71.53
30152;BME280;16963;26.018;-80.216;2022-08-27T14:16:31;101613.00;;;31.01;71.39
30152;BME280;16963;26.018;-80.216;2022-08-27T14:19:51;101617.31;;;31.04;70.72
30152;BME280;16963;26.018;-80.216;2022-08-27T14:22:03;101622.72;;;31.04;70.94
30152;BME280;16963;26.018;-80.216;2022-08-27T14:24:31;101617.63;;;31.10;70.33
30152;BME280;16963;26.018;-80.216;2022-08-27T14:29:01;101622.38;;;31.18;70.29
30152;BME280;16963;26.018;-80.216;2022-08-27T14:31:29;101618.16;;;31.25;69.52
30152;BME280;16963;26.018;-80.216;2022-08-27T14:33:57;101617.34;;;31.34;69.75
30152;BME280;16963;26.018;-80.216;2022-08-27T14:36:28;101616.91;;;31.50;69.80
30152;BME280;16963;26.018;-80.216;2022-08-27T14:39:04;101619.56;;;31.71;68.70
30152;BME280;16963;26.018;-80.216;2022-08-27T14:41:32;101613.03;;;31.84;67.90
30152;BME280;16963;26.018;-80.216;2022-08-27T14:44:00;101607.75;;;31.82;65.73
30152;BME280;16963;26.018;-80.216;2022-08-27T14:46:30;101605.69;;;31.74;65.22
30152;BME280;16963;26.018;-80.216;2022-08-27T14:50:00;101607.16;;;31.78;65.18
30152;BME280;16963;26.018;-80.216;2022-08-27T14:52:28;101598.03;;;31.79;64.50
30152;BME280;16963;26.018;-80.216;2022-08-27T14:54:56;101593.94;;;31.64;64.23
30152;BME280;16963;26.018;-80.216;2022-08-27T14:57:23;101597.63;;;31.53;64.79
30152;BME280;16963;26.018;-80.216;2022-08-27T14:59:51;101599.91;;;31.58;65.43
30152;BME280;16963;26.018;-80.216;2022-08-27T15:02:20;101587.16;;;31.79;65.83
30152;BME280;16963;26.018;-80.216;2022-08-27T15:04:49;101602.06;;;31.95;64.91
30152;BME280;16963;26.018;-80.216;2022-08-27T15:07:18;101609.56;;;32.03;65.00
30152;BME280;16963;26.018;-80.216;2022-08-27T15:10:00;101618.13;;;32.08;64.08